createdAt,value
2022-09-06T00:01:12.150Z,96721.25
2022-09-06T00:03:41.774Z,96710.47
2022-09-06T00:06:13.371Z,96710.22
2022-09-06T00:08:42.977Z,96703.28
2022-09-06T00:11:12.331Z,96705.50
2022-09-06T00:13:41.518Z,96696.94
2022-09-06T00:16:12.850Z,96702.16
2022-09-06T00:18:42.093Z,96700.28
2022-09-06T00:21:20.784Z,96701.09
2022-09-06T00:23:49.684Z,96699.56
2022-09-06T00:26:18.170Z,96699.38
2022-09-06T00:28:47.468Z,96690.41
2022-09-06T00:31:18.415Z,96697.63
2022-09-06T00:33:48.109Z,96700.06
2022-09-06T00:36:18.887Z,96699.47
2022-09-06T00:38:47.415Z,96703.81
2022-09-06T00:41:18.031Z,96710.50
2022-09-06T00:43:46.972Z,96713.91
2022-09-06T00:46:18.558Z,96714.53
2022-09-06T00:48:50.257Z,96718.06
2022-09-06T00:51:23.887Z,96721.41
2022-09-06T00:53:53.079Z,96719.97
2022-09-06T00:56:22.308Z,96725.53
2022-09-06T00:58:51.042Z,96722.63
2022-09-06T01:01:20.370Z,96724.34
2022-09-06T01:03:49.182Z,96718.06
2022-09-06T01:06:25.686Z,96715.25
2022-09-06T01:09:07.037Z,96715.25
2022-09-06T01:11:55.185Z,96727.13
2022-09-06T01:14:37.808Z,96722.59
2022-09-06T01:17:16.746Z,96719.03
2022-09-06T01:20:10.990Z,96721.53
2022-09-06T01:23:06.170Z,96719.69
2022-09-06T01:25:40.205Z,96719.94
2022-09-06T01:28:27.440Z,96721.88
2022-09-06T01:31:06.195Z,96717.81
2022-09-06T01:33:42.707Z,96721.66
2022-09-06T01:36:16.132Z,96719.22
2022-09-06T01:38:45.818Z,96721.41
2022-09-06T01:41:14.180Z,96725.31
2022-09-06T01:43:48.481Z,96733.00
2022-09-06T01:46:26.412Z,96722.00
2022-09-06T01:49:22.610Z,96725.31
2022-09-06T01:52:05.819Z,96730.00
2022-09-06T01:54:48.250Z,96717.81
2022-09-06T01:57:30.367Z,96722.00
2022-09-06T02:00:08.504Z,96718.16
2022-09-06T02:02:52.744Z,96723.66
2022-09-06T02:05:27.448Z,96732.16
2022-09-06T02:08:00.590Z,96724.50
2022-09-06T02:10:34.833Z,96720.94
2022-09-06T02:13:07.566Z,96723.72
2022-09-06T02:15:40.408Z,96723.25
2022-09-06T02:18:12.959Z,96721.88
2022-09-06T02:20:43.759Z,96727.03
2022-09-06T02:23:13.955Z,96720.44
2022-09-06T02:25:48.781Z,96730.34
2022-09-06T02:28:18.121Z,96730.38
2022-09-06T02:30:51.896Z,96728.75
2022-09-06T02:33:24.001Z,96722.22
2022-09-06T02:35:55.576Z,96714.25
2022-09-06T02:38:26.633Z,96708.34
2022-09-06T02:40:56.753Z,96715.72
2022-09-06T02:43:26.144Z,96712.16
2022-09-06T02:45:55.829Z,96717.91
2022-09-06T02:48:24.583Z,96718.84
2022-09-06T02:50:53.783Z,96720.47
2022-09-06T02:53:22.251Z,96719.38
2022-09-06T02:55:51.194Z,96723.56
2022-09-06T02:58:19.527Z,96724.44
2022-09-06T03:00:48.380Z,96714.00
2022-09-06T03:03:19.091Z,96711.59
2022-09-06T03:05:48.659Z,96701.22
2022-09-06T03:08:18.158Z,96697.38
2022-09-06T03:10:50.379Z,96701.50
2022-09-06T03:13:19.284Z,96700.69
2022-09-06T03:15:52.651Z,96707.84
2022-09-06T03:18:23.065Z,96712.81
2022-09-06T03:20:51.981Z,96714.56
2022-09-06T03:23:22.947Z,96715.97
2022-09-06T03:25:51.626Z,96702.06
2022-09-06T03:28:21.842Z,96712.75
2022-09-06T03:30:51.970Z,96711.41
2022-09-06T03:33:23.091Z,96703.75
2022-09-06T03:35:54.391Z,96705.69
2022-09-06T03:38:23.976Z,96711.41
2022-09-06T03:40:52.874Z,96706.75
2022-09-06T03:43:23.650Z,96707.78
2022-09-06T03:45:54.760Z,96705.38
2022-09-06T03:48:26.799Z,96707.84
2022-09-06T03:50:58.236Z,96703.47
2022-09-06T03:53:28.183Z,96695.56
2022-09-06T03:55:59.120Z,96698.53
2022-09-06T03:58:32.057Z,96702.09
2022-09-06T04:01:02.182Z,96709.22
2022-09-06T04:03:32.413Z,96707.59
2022-09-06T04:06:01.038Z,96703.19
2022-09-06T04:08:30.325Z,96705.41
2022-09-06T04:11:00.463Z,96701.63
2022-09-06T04:13:30.293Z,96697.56
2022-09-06T04:15:59.324Z,96704.75
2022-09-06T04:18:28.274Z,96701.22
2022-09-06T04:20:59.162Z,96707.78
2022-09-06T04:23:29.028Z,96699.56
2022-09-06T04:26:00.035Z,96713.56
2022-09-06T04:28:29.165Z,96705.88
2022-09-06T04:31:04.325Z,96708.91
2022-09-06T04:33:34.822Z,96698.78
2022-09-06T04:36:08.944Z,96706.25
2022-09-06T04:38:38.931Z,96704.56
2022-09-06T04:41:08.909Z,96697.16
2022-09-06T04:43:37.706Z,96694.13
2022-09-06T04:46:08.163Z,96688.19
2022-09-06T04:48:37.014Z,96699.19
2022-09-06T04:51:07.526Z,96696.44
2022-09-06T04:53:36.119Z,96709.03
2022-09-06T04:56:04.529Z,96710.09
2022-09-06T04:58:33.473Z,96707.63
2022-09-06T05:01:02.590Z,96705.66
2022-09-06T05:03:30.947Z,96698.25
2022-09-06T05:08:59.174Z,96706.75
2022-09-06T05:11:27.608Z,96705.34
2022-09-06T05:13:57.092Z,96713.06
2022-09-06T05:16:25.516Z,96708.97
2022-09-06T05:18:54.740Z,96713.59
2022-09-06T05:21:24.697Z,96720.69
2022-09-06T05:23:57.986Z,96722.91
2022-09-06T05:26:27.282Z,96730.59
2022-09-06T05:28:56.251Z,96725.06
2022-09-06T05:31:29.523Z,96725.34
2022-09-06T05:33:58.482Z,96726.69
2022-09-06T05:36:30.187Z,96724.47
2022-09-06T05:38:59.410Z,96728.59
2022-09-06T05:41:28.419Z,96732.69
2022-09-06T05:43:57.495Z,96722.03
2022-09-06T05:46:26.919Z,96729.19
2022-09-06T05:48:56.156Z,96733.56
2022-09-06T05:51:25.083Z,96734.91
2022-09-06T05:53:55.338Z,96738.47
2022-09-06T05:56:25.227Z,96737.94
2022-09-06T05:58:54.084Z,96738.47
2022-09-06T06:01:25.073Z,96742.84
2022-09-06T06:03:55.916Z,96745.59
2022-09-06T06:06:25.682Z,96741.50
2022-09-06T06:08:56.287Z,96745.56
2022-09-06T06:11:26.407Z,96749.94
2022-09-06T06:13:55.449Z,96758.69
2022-09-06T06:16:25.363Z,96758.69
2022-09-06T06:18:53.799Z,96765.22
2022-09-06T06:21:24.045Z,96762.19
2022-09-06T06:23:55.557Z,96764.91
2022-09-06T06:26:24.435Z,96763.28
2022-09-06T06:28:53.375Z,96765.16
2022-09-06T06:31:22.600Z,96767.88
2022-09-06T06:33:52.322Z,96770.63
2022-09-06T06:36:22.747Z,96765.66
2022-09-06T06:38:54.007Z,96774.09
2022-09-06T06:41:25.665Z,96775.19
2022-09-06T06:43:54.752Z,96770.81
2022-09-06T06:46:25.889Z,96776.84
2022-09-06T06:48:55.587Z,96782.59
2022-09-06T06:51:26.736Z,96789.16
2022-09-06T06:53:56.762Z,96789.94
2022-09-06T06:56:28.283Z,96793.19
2022-09-06T06:58:58.680Z,96795.63
2022-09-06T07:01:29.125Z,96789.31
2022-09-06T07:03:58.861Z,96800.13
2022-09-06T07:09:19.662Z,96797.00
2022-09-06T07:11:50.773Z,96791.97
2022-09-06T07:14:19.869Z,96802.28
2022-09-06T07:16:48.292Z,96814.81
2022-09-06T07:22:06.399Z,96797.06
2022-09-06T07:24:35.394Z,96793.41
2022-09-06T07:29:53.613Z,96791.00
2022-09-06T07:32:21.996Z,96779.78
2022-09-06T07:34:50.882Z,96779.19
2022-09-06T07:37:19.546Z,96782.63
2022-09-06T07:39:47.982Z,96768.50
2022-09-06T07:42:18.129Z,96778.97
2022-09-06T07:44:46.694Z,96771.91
2022-09-06T07:53:15.546Z,96769.13
2022-09-06T07:55:44.869Z,96775.13
2022-09-06T07:58:14.696Z,96773.63
2022-09-06T08:00:43.309Z,96775.78
2022-09-06T08:03:11.702Z,96770.06
2022-09-06T08:11:18.473Z,96778.69
2022-09-06T08:13:51.251Z,96773.69
2022-09-06T08:16:20.155Z,96785.44
2022-09-06T08:18:53.476Z,96797.78
2022-09-06T08:21:23.882Z,96794.53
2022-09-06T08:23:54.619Z,96795.53
2022-09-06T08:26:24.663Z,96793.84
2022-09-06T08:29:00.604Z,96788.69
2022-09-06T08:31:30.252Z,96790.50
2022-09-06T08:34:00.573Z,96799.50
2022-09-06T08:36:31.164Z,96794.41
2022-09-06T08:39:00.450Z,96788.59
2022-09-06T08:41:34.269Z,96796.94
2022-09-06T08:47:00.853Z,96810.34
2022-09-06T08:49:33.162Z,96809.13
2022-09-06T08:52:24.915Z,96799.41
2022-09-06T08:55:01.671Z,96800.00
2022-09-06T08:57:45.633Z,96791.91
2022-09-06T09:00:15.573Z,96781.56
2022-09-06T09:02:46.573Z,96784.66
2022-09-06T09:05:23.266Z,96783.25
2022-09-06T09:08:01.285Z,96776.75
2022-09-06T09:10:33.083Z,96774.19
2022-09-06T09:13:04.721Z,96779.31
2022-09-06T09:15:40.458Z,96779.97
2022-09-06T09:18:09.387Z,96766.38
2022-09-06T09:20:39.168Z,96764.47
2022-09-06T09:23:07.566Z,96764.41
2022-09-06T09:25:39.538Z,96762.47
2022-09-06T09:28:15.306Z,96755.47
2022-09-06T09:30:50.982Z,96759.19
2022-09-06T09:33:29.868Z,96738.97
2022-09-06T09:36:00.669Z,96749.41
2022-09-06T09:38:32.012Z,96744.16
2022-09-06T09:41:02.865Z,96751.28
2022-09-06T09:43:32.790Z,96743.03
2022-09-06T09:46:17.811Z,96735.16
2022-09-06T09:49:02.279Z,96738.88
2022-09-06T09:51:32.074Z,96743.50
2022-09-06T09:54:03.761Z,96740.50
2022-09-06T09:56:38.240Z,96735.59
2022-09-06T09:59:19.207Z,96740.66
2022-09-06T10:01:49.383Z,96737.53
2022-09-06T10:04:43.262Z,96736.38
2022-09-06T10:07:14.862Z,96736.38
2022-09-06T10:09:45.926Z,96750.75
2022-09-06T10:12:19.258Z,96740.06
2022-09-06T10:14:49.646Z,96737.22
2022-09-06T10:17:31.067Z,96747.69
2022-09-06T10:20:03.532Z,96747.59
2022-09-06T10:22:33.785Z,96741.41
2022-09-06T10:25:43.007Z,96737.78
2022-09-06T10:28:28.585Z,96735.94
2022-09-06T10:31:07.356Z,96723.66
2022-09-06T10:33:52.291Z,96730.22
2022-09-06T10:36:27.924Z,96724.13
2022-09-06T10:39:03.705Z,96726.63
2022-09-06T10:41:44.812Z,96735.44
2022-09-06T10:44:35.559Z,96733.81
2022-09-06T10:47:10.624Z,96719.69
2022-09-06T10:49:45.414Z,96727.16
2022-09-06T10:52:19.462Z,96710.59
2022-09-06T10:54:47.895Z,96713.56
2022-09-06T11:00:13.656Z,96719.66
2022-09-06T11:02:48.884Z,96707.34
2022-09-06T11:05:39.421Z,96701.78
2022-09-06T11:11:08.106Z,96704.00
2022-09-06T11:13:36.710Z,96694.56
2022-09-06T11:16:10.160Z,96695.16
2022-09-06T11:18:44.065Z,96699.78
2022-09-06T11:21:50.687Z,96701.41
2022-09-06T11:24:27.031Z,96693.19
2022-09-06T11:27:03.258Z,96696.50
2022-09-06T11:29:33.476Z,96689.00
2022-09-06T11:32:19.057Z,96687.34
2022-09-06T11:34:55.595Z,96690.81
2022-09-06T11:37:29.180Z,96694.28
2022-09-06T11:40:29.490Z,96682.41
2022-09-06T11:43:13.318Z,96681.41
2022-09-06T11:45:46.559Z,96680.97
2022-09-06T11:48:36.475Z,96670.50
2022-09-06T11:51:11.010Z,96672.16
2022-09-06T11:54:05.380Z,96670.13
2022-09-06T11:56:40.864Z,96674.06
2022-09-06T11:59:19.566Z,96674.41
2022-09-06T12:02:01.264Z,96666.13
2022-09-06T12:05:16.710Z,96665.53
2022-09-06T12:08:32.701Z,96651.03
2022-09-06T12:11:21.718Z,96651.13
2022-09-06T12:13:56.298Z,96637.50
2022-09-06T12:16:26.150Z,96639.25
2022-09-06T12:18:58.173Z,96641.34
2022-09-06T12:21:52.888Z,96643.75
2022-09-06T12:24:52.498Z,96647.22
2022-09-06T12:27:24.515Z,96637.22
2022-09-06T12:29:59.601Z,96637.09
2022-09-06T12:32:36.090Z,96638.56
2022-09-06T12:38:00.648Z,96635.25
2022-09-06T12:40:31.785Z,96624.03
2022-09-06T12:43:04.511Z,96617.84
2022-09-06T12:45:34.357Z,96618.63
2022-09-06T12:48:09.105Z,96615.34
2022-09-06T12:50:39.176Z,96606.44
2022-09-06T12:53:24.463Z,96604.53
2022-09-06T12:56:05.576Z,96599.41
2022-09-06T12:58:36.485Z,96599.13
2022-09-06T13:01:11.353Z,96603.78
2022-09-06T13:03:45.564Z,96607.03
2022-09-06T13:06:26.018Z,96598.50
2022-09-06T13:08:58.069Z,96604.41
2022-09-06T13:11:31.554Z,96603.72
2022-09-06T13:14:14.026Z,96603.38
2022-09-06T13:16:46.820Z,96599.75
2022-09-06T13:19:18.896Z,96592.78
2022-09-06T13:21:47.987Z,96587.44
2022-09-06T13:24:21.149Z,96601.00
2022-09-06T13:26:50.727Z,96591.38
2022-09-06T13:29:31.352Z,96586.88
2022-09-06T13:32:03.677Z,96588.66
2022-09-06T13:34:34.132Z,96577.00
2022-09-06T13:37:06.344Z,96590.56
2022-09-06T13:39:37.574Z,96581.50
2022-09-06T13:42:08.368Z,96574.19
2022-09-06T13:44:39.810Z,96570.91
2022-09-06T13:47:08.786Z,96572.16
2022-09-06T13:49:37.111Z,96567.75
2022-09-06T13:52:06.457Z,96561.91
2022-09-06T13:54:35.982Z,96569.31
2022-09-06T13:57:04.740Z,96554.88
2022-09-06T13:59:33.878Z,96556.75
2022-09-06T14:02:07.211Z,96562.13
2022-09-06T14:04:36.224Z,96556.03
2022-09-06T14:07:05.564Z,96555.69
2022-09-06T14:09:34.660Z,96558.28
2022-09-06T14:12:03.232Z,96558.28
2022-09-06T14:14:31.606Z,96555.75
2022-09-06T14:17:00.401Z,96551.78
2022-09-06T14:19:30.134Z,96536.25
2022-09-06T14:21:58.511Z,96548.81
2022-09-06T14:24:26.893Z,96537.66
2022-09-06T14:26:55.270Z,96534.66
2022-09-06T14:29:24.031Z,96535.16
2022-09-06T14:31:52.447Z,96539.94
2022-09-06T14:34:21.984Z,96532.81
2022-09-06T14:36:51.988Z,96531.81
2022-09-06T14:39:20.510Z,96536.41
2022-09-06T14:41:49.275Z,96526.41
2022-09-06T14:44:18.156Z,96527.75
2022-09-06T14:46:47.731Z,96521.00
2022-09-06T14:49:16.095Z,96517.09
2022-09-06T14:51:45.930Z,96502.88
2022-09-06T14:54:15.850Z,96516.81
2022-09-06T14:56:44.697Z,96522.88
2022-09-06T14:59:13.414Z,96515.44
2022-09-06T15:01:42.084Z,96513.59
2022-09-06T15:04:12.278Z,96518.28
2022-09-06T15:06:44.919Z,96503.78
2022-09-06T15:09:16.507Z,96507.56
2022-09-06T15:11:48.026Z,96516.09
2022-09-06T15:14:18.153Z,96519.06
2022-09-06T15:16:49.784Z,96515.50
2022-09-06T15:19:21.387Z,96517.53
2022-09-06T15:21:50.256Z,96518.31
2022-09-06T15:24:21.096Z,96514.28
2022-09-06T15:26:49.554Z,96509.41
2022-09-06T15:29:19.532Z,96512.16
2022-09-06T15:31:50.894Z,96507.66
2022-09-06T15:34:20.477Z,96500.75
2022-09-06T15:36:49.430Z,96496.56
2022-09-06T15:39:20.574Z,96502.09
2022-09-06T15:41:51.547Z,96498.84
2022-09-06T15:44:22.000Z,96491.50
2022-09-06T15:46:52.001Z,96490.91
2022-09-06T15:49:27.483Z,96488.25
2022-09-06T15:51:57.641Z,96484.88
2022-09-06T15:54:42.613Z,96486.25
2022-09-06T15:57:11.497Z,96479.69
2022-09-06T15:59:40.901Z,96477.44
2022-09-06T16:02:09.696Z,96483.25
2022-09-06T16:04:38.908Z,96481.69
2022-09-06T16:07:07.511Z,96475.59
2022-09-06T16:09:38.199Z,96481.34
2022-09-06T16:12:07.285Z,96470.59
2022-09-06T16:14:35.695Z,96471.13
2022-09-06T16:17:04.921Z,96469.13
2022-09-06T16:19:33.810Z,96474.09
2022-09-06T16:22:02.477Z,96468.25
2022-09-06T16:24:31.570Z,96464.75
2022-09-06T16:27:01.276Z,96459.38
2022-09-06T16:29:30.139Z,96459.97
2022-09-06T16:32:00.527Z,96454.94
2022-09-06T16:34:29.278Z,96460.81
2022-09-06T16:36:58.071Z,96458.22
2022-09-06T16:39:26.984Z,96461.66
2022-09-06T16:41:55.804Z,96454.66
2022-09-06T16:44:26.262Z,96451.72
2022-09-06T16:46:57.180Z,96449.97
2022-09-06T16:49:25.681Z,96448.59
2022-09-06T16:51:54.051Z,96452.31
2022-09-06T16:54:22.498Z,96451.75
2022-09-06T16:56:50.873Z,96446.75
2022-09-06T16:59:19.663Z,96443.34
2022-09-06T17:01:49.600Z,96443.94
2022-09-06T17:04:18.682Z,96441.75
2022-09-06T17:06:47.404Z,96430.66
2022-09-06T17:09:18.639Z,96431.22
2022-09-06T17:11:50.460Z,96435.78
2022-09-06T17:14:19.393Z,96426.25
2022-09-06T17:17:06.843Z,96423.84
2022-09-06T17:19:37.585Z,96416.75
2022-09-06T17:22:06.459Z,96422.81
2022-09-06T17:24:35.708Z,96427.41
2022-09-06T17:27:04.210Z,96435.16
2022-09-06T17:29:32.821Z,96434.91
2022-09-06T17:32:04.497Z,96428.22
2022-09-06T17:34:33.632Z,96424.81
2022-09-06T17:37:02.324Z,96426.19
2022-09-06T17:39:30.908Z,96417.91
2022-09-06T17:42:00.496Z,96431.19
2022-09-06T17:44:28.877Z,96431.72
2022-09-06T17:47:14.437Z,96420.63
2022-09-06T17:49:44.767Z,96429.69
2022-09-06T17:52:13.904Z,96430.75
2022-09-06T17:54:42.683Z,96432.97
2022-09-06T17:57:11.047Z,96439.75
2022-09-06T17:59:40.194Z,96444.28
2022-09-06T18:02:08.950Z,96445.91
2022-09-06T18:04:38.288Z,96440.09
2022-09-06T18:07:08.028Z,96452.59
2022-09-06T18:09:37.711Z,96457.25
2022-09-06T18:12:06.792Z,96459.44
2022-09-06T18:14:35.991Z,96460.84
2022-09-06T18:17:04.412Z,96457.94
2022-09-06T18:19:33.158Z,96457.34
2022-09-06T18:22:01.605Z,96471.13
2022-09-06T18:24:31.994Z,96482.13
2022-09-06T18:27:03.198Z,96484.84
2022-09-06T18:29:32.810Z,96478.31
2022-09-06T18:32:02.023Z,96488.78
2022-09-06T18:34:30.841Z,96492.81
2022-09-06T18:36:59.763Z,96489.53
2022-09-06T18:39:29.156Z,96495.59
2022-09-06T18:42:02.067Z,96498.13
2022-09-06T18:44:32.604Z,96501.72
2022-09-06T18:47:02.650Z,96503.28
2022-09-06T18:49:32.537Z,96512.22
2022-09-06T18:52:01.389Z,96509.59
2022-09-06T18:54:31.140Z,96511.78
2022-09-06T18:57:00.943Z,96503.88
2022-09-06T18:59:29.893Z,96506.72
2022-09-06T19:01:58.489Z,96503.34
2022-09-06T19:04:27.135Z,96496.81
2022-09-06T19:06:55.504Z,96489.00
2022-09-06T19:09:24.190Z,96489.84
2022-09-06T19:11:53.232Z,96490.34
2022-09-06T19:14:23.259Z,96489.66
2022-09-06T19:16:53.844Z,96481.06
2022-09-06T19:19:23.107Z,96483.69
2022-09-06T19:21:52.411Z,96482.91
2022-09-06T19:24:22.620Z,96480.88
2022-09-06T19:26:52.770Z,96484.34
2022-09-06T19:29:21.928Z,96488.59
2022-09-06T19:31:52.908Z,96480.47
2022-09-06T19:34:22.040Z,96478.03
2022-09-06T19:36:55.553Z,96470.06
2022-09-06T19:39:31.183Z,96476.47
2022-09-06T19:42:02.518Z,96468.44
2022-09-06T19:44:30.910Z,96465.09
2022-09-06T19:47:01.326Z,96465.91
2022-09-06T19:49:31.178Z,96463.63
2022-09-06T19:51:59.536Z,96461.19
2022-09-06T19:54:28.808Z,96469.53
2022-09-06T19:56:57.160Z,96470.19
2022-09-06T19:59:25.868Z,96465.34
2022-09-06T20:01:54.750Z,96476.72
2022-09-06T20:04:25.208Z,96469.91
2022-09-06T20:06:53.620Z,96464.69
2022-09-06T20:09:22.757Z,96463.88
2022-09-06T20:11:51.722Z,96454.66
2022-09-06T20:14:20.089Z,96445.56
2022-09-06T20:16:49.060Z,96438.44
2022-09-06T20:19:17.660Z,96440.03
2022-09-06T20:21:48.307Z,96442.47
2022-09-06T20:24:17.085Z,96439.72
2022-09-06T20:26:45.428Z,96440.53
2022-09-06T20:29:14.183Z,96436.44
2022-09-06T20:31:43.459Z,96442.47
2022-09-06T20:34:16.059Z,96441.19
2022-09-06T20:36:45.232Z,96437.41
2022-09-06T20:39:15.363Z,96435.16
2022-09-06T20:41:43.764Z,96439.84
2022-09-06T20:44:12.231Z,96434.50
2022-09-06T20:46:41.490Z,96431.41
2022-09-06T20:49:10.702Z,96437.09
2022-09-06T20:51:43.123Z,96433.84
2022-09-06T20:54:12.624Z,96427.19
2022-09-06T20:56:43.132Z,96425.72
2022-09-06T20:59:14.124Z,96420.03
2022-09-06T21:01:44.526Z,96413.69
2022-09-06T21:04:15.836Z,96413.84
2022-09-06T21:06:46.135Z,96411.06
2022-09-06T21:09:15.706Z,96415.78
2022-09-06T21:11:46.880Z,96419.50
2022-09-06T21:14:15.340Z,96421.75
2022-09-06T21:16:43.864Z,96421.91
2022-09-06T21:19:13.127Z,96414.75
2022-09-06T21:21:41.932Z,96426.75
2022-09-06T21:24:12.240Z,96431.13
2022-09-06T21:26:43.322Z,96415.69
2022-09-06T21:29:13.800Z,96420.41
2022-09-06T21:31:42.992Z,96412.78
2022-09-06T21:34:16.971Z,96410.16
2022-09-06T21:36:46.851Z,96410.16
2022-09-06T21:39:16.042Z,96403.50
2022-09-06T21:41:45.318Z,96401.88
2022-09-06T21:44:15.204Z,96396.00
2022-09-06T21:46:44.750Z,96404.06
2022-09-06T21:49:14.721Z,96424.38
2022-09-06T21:51:44.434Z,96407.25
2022-09-06T21:54:12.911Z,96416.19
2022-09-06T21:56:42.297Z,96420.56
2022-09-06T21:59:11.518Z,96417.94
2022-09-06T22:01:44.884Z,96415.59
2022-09-06T22:04:14.880Z,96418.75
2022-09-06T22:06:43.259Z,96426.91
2022-09-06T22:09:13.412Z,96426.53
2022-09-06T22:11:44.299Z,96415.81
2022-09-06T22:14:14.855Z,96419.78
2022-09-06T22:16:45.356Z,96420.63
2022-09-06T22:19:14.524Z,96422.88
2022-09-06T22:21:42.973Z,96430.53
2022-09-06T22:24:14.657Z,96429.41
2022-09-06T22:26:43.752Z,96420.00
2022-09-06T22:29:15.053Z,96412.97
2022-09-06T22:31:46.125Z,96423.53
2022-09-06T22:34:14.616Z,96425.25
2022-09-06T22:36:43.916Z,96439.06
2022-09-06T22:39:12.378Z,96434.19
2022-09-06T22:41:41.530Z,96435.81
2022-09-06T22:44:09.911Z,96438.69
2022-09-06T22:46:39.096Z,96432.41
2022-09-06T22:49:08.859Z,96434.19
2022-09-06T22:51:38.177Z,96438.16
2022-09-06T22:54:07.331Z,96430.00
2022-09-06T22:56:35.754Z,96432.69
2022-09-06T22:59:05.363Z,96431.69
2022-09-06T23:01:39.174Z,96430.50
2022-09-06T23:04:10.743Z,96429.16
2022-09-06T23:06:39.242Z,96423.31
2022-09-06T23:09:08.707Z,96427.75
2022-09-06T23:11:37.496Z,96428.41
2022-09-06T23:14:05.916Z,96424.34
2022-09-06T23:16:35.118Z,96423.22
2022-09-06T23:19:03.600Z,96414.06
2022-09-06T23:21:35.268Z,96414.38
2022-09-06T23:24:04.517Z,96418.94
2022-09-06T23:26:34.195Z,96416.81
2022-09-06T23:29:03.028Z,96414.81
2022-09-06T23:31:32.878Z,96415.34
2022-09-06T23:34:02.470Z,96410.47
2022-09-06T23:36:32.812Z,96414.53
2022-09-06T23:39:02.793Z,96410.47
2022-09-06T23:41:32.294Z,96406.56
2022-09-06T23:44:01.802Z,96395.88
2022-09-06T23:46:31.463Z,96408.31
2022-09-06T23:48:59.865Z,96402.63
2022-09-06T23:51:29.107Z,96395.78
2022-09-06T23:53:58.340Z,96383.66
2022-09-06T23:56:28.911Z,96389.59
2022-09-06T23:58:57.467Z,96389.59
